createdAt,value
2019-02-09T00:01:19.693Z,29.57
2019-02-09T00:03:49.606Z,30.80
2019-02-09T00:06:18.980Z,34.60
2019-02-09T00:08:48.348Z,32.03
2019-02-09T00:11:18.295Z,37.40
2019-02-09T00:13:47.673Z,31.30
2019-02-09T00:16:17.021Z,35.80
2019-02-09T00:18:46.410Z,27.50
2019-02-09T00:21:15.839Z,38.47
2019-02-09T00:23:45.583Z,37.50
2019-02-09T00:26:14.904Z,30.33
2019-02-09T00:28:44.339Z,34.47
2019-02-09T00:31:13.885Z,30.13
2019-02-09T00:33:43.651Z,32.60
2019-02-09T00:36:13.022Z,35.83
2019-02-09T00:38:42.478Z,34.00
2019-02-09T00:41:11.825Z,31.10
2019-02-09T00:43:41.225Z,30.07
2019-02-09T00:46:10.659Z,28.77
2019-02-09T00:48:40.039Z,32.80
2019-02-09T00:51:09.418Z,30.63
2019-02-09T00:53:38.763Z,34.10
2019-02-09T00:56:08.117Z,29.47
2019-02-09T00:58:37.503Z,27.83
2019-02-09T01:01:07.198Z,35.30
2019-02-09T01:03:36.583Z,33.00
2019-02-09T01:06:06.150Z,26.53
2019-02-09T01:08:35.857Z,32.97
2019-02-09T01:11:05.569Z,29.20
2019-02-09T01:13:35.027Z,32.73
2019-02-09T01:16:04.818Z,30.47
2019-02-09T01:18:34.224Z,32.27
2019-02-09T01:21:03.557Z,31.73
2019-02-09T01:23:32.819Z,32.87
2019-02-09T01:26:02.144Z,31.73
2019-02-09T01:28:31.486Z,32.93
2019-02-09T01:31:01.151Z,35.27
2019-02-09T01:33:30.787Z,34.57
2019-02-09T01:36:00.126Z,35.73
2019-02-09T01:38:29.496Z,36.90
2019-02-09T01:40:59.532Z,33.87
2019-02-09T01:43:28.950Z,36.97
2019-02-09T01:45:58.357Z,34.83
2019-02-09T01:48:27.741Z,38.30
2019-02-09T01:50:57.130Z,37.97
2019-02-09T01:53:26.486Z,40.13
2019-02-09T01:55:55.823Z,39.97
2019-02-09T01:58:25.201Z,39.03
2019-02-09T02:00:54.555Z,37.63
2019-02-09T02:03:23.996Z,35.20
2019-02-09T02:05:53.529Z,36.13
2019-02-09T02:08:23.864Z,35.00
2019-02-09T02:10:53.261Z,36.20
2019-02-09T02:13:22.715Z,37.07
2019-02-09T02:15:52.076Z,35.33
2019-02-09T02:18:21.440Z,35.00
2019-02-09T02:20:51.263Z,35.77
2019-02-09T02:24:02.927Z,37.97
2019-02-09T02:26:32.272Z,34.60
2019-02-09T02:29:01.558Z,35.57
2019-02-09T02:31:30.973Z,37.07
2019-02-09T02:34:00.296Z,35.53
2019-02-09T02:36:29.657Z,37.63
2019-02-09T02:38:59.021Z,40.07
2019-02-09T02:41:28.360Z,41.93
2019-02-09T02:43:57.890Z,43.00
2019-02-09T02:46:27.152Z,40.70
2019-02-09T02:48:56.509Z,36.50
2019-02-09T02:54:57.948Z,36.27
2019-02-09T02:57:27.309Z,37.27
2019-02-09T02:59:56.578Z,40.77
2019-02-09T03:02:41.329Z,39.33
2019-02-09T03:05:12.950Z,41.27
2019-02-09T03:07:42.314Z,39.47
2019-02-09T03:10:11.880Z,40.30
2019-02-09T03:12:41.254Z,39.73
2019-02-09T03:15:13.749Z,40.13
2019-02-09T03:17:43.036Z,36.07
2019-02-09T03:20:14.527Z,35.13
2019-02-09T03:22:44.044Z,35.00
2019-02-09T03:25:28.343Z,32.67
2019-02-09T03:27:57.757Z,36.47
2019-02-09T03:30:27.037Z,36.77
2019-02-09T03:32:56.346Z,36.60
2019-02-09T03:35:25.897Z,39.37
2019-02-09T03:37:55.226Z,33.70
2019-02-09T03:40:25.510Z,34.33
2019-02-09T03:42:54.828Z,36.37
2019-02-09T03:45:26.386Z,35.23
2019-02-09T03:47:56.240Z,34.57
2019-02-09T03:50:27.399Z,36.90
2019-02-09T03:52:57.243Z,34.17
2019-02-09T03:55:26.494Z,34.63
2019-02-09T03:57:55.870Z,37.33
2019-02-09T04:00:27.067Z,36.87
2019-02-09T04:02:56.641Z,39.50
2019-02-09T04:05:26.055Z,38.27
2019-02-09T04:07:55.453Z,37.60
2019-02-09T04:10:25.683Z,39.50
2019-02-09T04:12:55.412Z,38.80
2019-02-09T04:15:25.458Z,37.13
2019-02-09T04:17:54.967Z,39.17
2019-02-09T04:20:24.748Z,44.03
2019-02-09T04:22:54.159Z,41.73
2019-02-09T04:25:25.048Z,43.37
2019-02-09T04:27:54.343Z,44.00
2019-02-09T04:30:25.670Z,43.33
2019-02-09T04:32:55.244Z,39.63
2019-02-09T04:35:24.751Z,39.23
2019-02-09T04:37:54.099Z,43.23
2019-02-09T04:40:25.418Z,41.63
2019-02-09T04:42:55.319Z,39.77
2019-02-09T04:45:24.812Z,42.77
2019-02-09T04:47:54.166Z,43.63
2019-02-09T04:50:23.530Z,44.80
2019-02-09T04:52:52.980Z,39.40
2019-02-09T04:55:22.942Z,43.47
2019-02-09T04:57:52.307Z,41.87
2019-02-09T05:00:27.277Z,41.97
2019-02-09T05:02:56.666Z,42.83
2019-02-09T05:05:26.047Z,41.70
2019-02-09T05:07:55.518Z,39.30
2019-02-09T05:10:25.460Z,42.27
2019-02-09T05:12:54.681Z,43.60
2019-02-09T05:15:24.389Z,41.80
2019-02-09T05:17:53.731Z,43.47
2019-02-09T05:20:24.869Z,69.37
2019-02-09T05:22:54.671Z,46.13
2019-02-09T05:25:24.559Z,44.90
2019-02-09T05:27:53.924Z,45.20
2019-02-09T05:30:25.204Z,45.13
2019-02-09T05:32:55.106Z,40.90
2019-02-09T05:35:24.451Z,38.63
2019-02-09T05:37:54.219Z,42.50
2019-02-09T05:40:23.796Z,41.63
2019-02-09T05:42:53.260Z,43.13
2019-02-09T05:45:24.044Z,42.93
2019-02-09T05:47:53.387Z,48.60
2019-02-09T05:50:22.945Z,45.77
2019-02-09T05:52:52.234Z,45.57
2019-02-09T05:55:21.984Z,46.83
2019-02-09T05:57:51.280Z,34.70
2019-02-09T06:00:34.340Z,45.40
2019-02-09T06:03:03.805Z,41.83
2019-02-09T06:05:33.272Z,43.90
2019-02-09T06:08:02.644Z,51.03
2019-02-09T06:10:31.988Z,38.07
2019-02-09T06:13:01.966Z,37.83
2019-02-09T06:15:31.300Z,39.50
2019-02-09T06:18:00.648Z,39.53
2019-02-09T06:20:30.435Z,41.97
2019-02-09T06:22:59.787Z,43.13
2019-02-09T06:25:29.166Z,42.33
2019-02-09T06:27:58.482Z,47.37
2019-02-09T06:30:29.290Z,42.73
2019-02-09T06:32:58.745Z,40.50
2019-02-09T06:35:28.165Z,45.00
2019-02-09T06:37:57.546Z,52.40
2019-02-09T06:40:27.012Z,41.80
2019-02-09T06:42:56.352Z,30.73
2019-02-09T06:45:25.828Z,40.67
2019-02-09T06:48:16.408Z,36.60
2019-02-09T06:50:45.783Z,43.50
2019-02-09T06:53:15.651Z,31.73
2019-02-09T06:55:44.924Z,32.50
2019-02-09T06:58:14.297Z,36.87
2019-02-09T07:00:43.707Z,39.93
2019-02-09T07:03:13.077Z,38.23
2019-02-09T07:05:42.440Z,34.43
2019-02-09T07:08:11.821Z,34.50
2019-02-09T07:10:41.220Z,31.33
2019-02-09T07:13:10.579Z,32.53
2019-02-09T07:15:39.961Z,31.07
2019-02-09T07:18:09.331Z,26.03
2019-02-09T07:20:39.031Z,27.33
2019-02-09T07:23:11.607Z,29.80
2019-02-09T07:25:41.336Z,33.97
2019-02-09T07:28:11.000Z,34.33
2019-02-09T07:30:40.362Z,33.33
2019-02-09T07:33:10.366Z,26.47
2019-02-09T07:35:39.761Z,31.63
2019-02-09T07:38:09.198Z,27.00
2019-02-09T07:40:38.579Z,25.03
2019-02-09T07:43:07.973Z,28.27
2019-02-09T07:45:37.489Z,23.63
2019-02-09T07:48:07.292Z,27.27
2019-02-09T07:50:36.682Z,24.53
2019-02-09T07:53:06.061Z,26.20
2019-02-09T07:55:35.461Z,21.97
2019-02-09T07:58:05.313Z,25.23
2019-02-09T08:00:34.812Z,21.40
2019-02-09T08:03:04.754Z,27.40
2019-02-09T08:05:34.308Z,26.33
2019-02-09T08:08:06.530Z,24.60
2019-02-09T08:10:35.982Z,21.63
2019-02-09T08:13:06.046Z,15.80
2019-02-09T08:15:35.383Z,22.10
2019-02-09T08:18:05.374Z,22.00
2019-02-09T08:20:34.833Z,25.00
2019-02-09T08:23:05.355Z,22.80
2019-02-09T08:25:35.700Z,20.73
2019-02-09T08:28:06.648Z,21.13
2019-02-09T08:30:42.046Z,19.67
2019-02-09T08:33:11.797Z,20.67
2019-02-09T08:35:41.243Z,16.50
2019-02-09T08:38:13.543Z,21.40
2019-02-09T08:40:43.132Z,22.80
2019-02-09T08:43:13.165Z,32.17
2019-02-09T08:45:42.545Z,24.40
2019-02-09T08:48:14.283Z,21.90
2019-02-09T08:50:47.200Z,21.90
2019-02-09T08:53:16.595Z,20.97
2019-02-09T08:55:45.947Z,21.77
2019-02-09T08:58:16.177Z,22.13
2019-02-09T09:00:45.655Z,23.10
2019-02-09T09:03:15.087Z,17.23
2019-02-09T09:05:46.123Z,16.43
2019-02-09T09:08:16.446Z,21.07
2019-02-09T09:10:45.906Z,20.23
2019-02-09T09:13:15.544Z,22.50
2019-02-09T09:15:47.435Z,22.20
2019-02-09T09:18:16.808Z,19.23
2019-02-09T09:20:49.220Z,13.10
2019-02-09T09:23:19.747Z,17.07
2019-02-09T09:25:49.257Z,17.00
2019-02-09T09:28:18.762Z,24.87
2019-02-09T09:30:48.117Z,20.63
2019-02-09T09:33:20.222Z,21.80
2019-02-09T09:35:49.585Z,12.20
2019-02-09T09:38:19.109Z,16.47
2019-02-09T09:40:48.483Z,16.83
2019-02-09T09:43:17.871Z,17.37
2019-02-09T09:45:47.384Z,16.67
2019-02-09T09:48:17.944Z,18.73
2019-02-09T09:50:47.642Z,15.03
2019-02-09T09:53:16.985Z,20.43
2019-02-09T09:55:46.367Z,20.10
2019-02-09T09:58:15.877Z,20.27
2019-02-09T10:00:45.235Z,22.07
2019-02-09T10:03:14.580Z,22.77
2019-02-09T10:05:43.966Z,18.93
2019-02-09T10:08:13.456Z,22.23
2019-02-09T10:10:42.858Z,21.63
2019-02-09T10:13:12.324Z,23.53
2019-02-09T10:15:43.789Z,18.03
2019-02-09T10:18:13.328Z,20.67
2019-02-09T10:20:42.704Z,15.37
2019-02-09T10:23:12.082Z,21.27
2019-02-09T10:25:41.499Z,20.57
2019-02-09T10:28:10.907Z,19.63
2019-02-09T10:30:40.285Z,16.93
2019-02-09T10:33:09.650Z,21.57
2019-02-09T10:35:39.243Z,20.17
2019-02-09T10:38:08.608Z,16.23
2019-02-09T10:40:38.651Z,18.23
2019-02-09T10:43:08.898Z,19.47
2019-02-09T10:45:38.280Z,22.60
2019-02-09T10:48:08.392Z,20.97
2019-02-09T10:50:40.167Z,17.57
2019-02-09T10:53:09.589Z,20.30
2019-02-09T10:55:38.980Z,19.67
2019-02-09T10:58:08.896Z,16.03
2019-02-09T11:00:57.107Z,20.13
2019-02-09T11:03:26.500Z,21.27
2019-02-09T11:05:55.900Z,23.40
2019-02-09T11:08:27.945Z,22.93
2019-02-09T11:10:57.314Z,20.53
2019-02-09T11:13:26.707Z,20.27
2019-02-09T11:15:56.074Z,21.70
2019-02-09T11:18:26.790Z,20.97
2019-02-09T11:20:56.161Z,21.63
2019-02-09T11:23:25.558Z,17.80
2019-02-09T11:25:55.265Z,16.10
2019-02-09T11:28:24.592Z,18.40
2019-02-09T11:30:53.999Z,20.43
2019-02-09T11:33:24.015Z,15.90
2019-02-09T11:35:53.569Z,15.43
2019-02-09T11:38:22.976Z,17.77
2019-02-09T11:40:52.404Z,20.33
2019-02-09T11:43:22.344Z,20.60
2019-02-09T11:45:51.995Z,24.90
2019-02-09T11:48:29.630Z,22.60
2019-02-09T11:50:59.151Z,17.27
2019-02-09T11:53:28.536Z,20.43
2019-02-09T11:55:57.946Z,17.97
2019-02-09T11:58:27.324Z,16.17
2019-02-09T12:00:56.806Z,19.07
2019-02-09T12:03:26.202Z,21.07
2019-02-09T12:05:55.669Z,15.70
2019-02-09T12:08:25.880Z,20.07
2019-02-09T12:10:55.367Z,21.37
2019-02-09T12:13:24.757Z,16.10
2019-02-09T12:15:54.221Z,26.63
2019-02-09T12:18:25.437Z,16.27
2019-02-09T12:20:55.290Z,19.47
2019-02-09T12:23:24.667Z,19.53
2019-02-09T12:25:57.305Z,16.57
2019-02-09T12:28:26.883Z,14.13
2019-02-09T12:30:56.967Z,15.83
2019-02-09T12:33:26.558Z,14.93
2019-02-09T12:35:55.938Z,15.47
2019-02-09T12:38:25.384Z,12.73
2019-02-09T12:40:54.867Z,15.23
2019-02-09T12:43:24.259Z,16.83
2019-02-09T12:45:53.648Z,18.97
2019-02-09T12:48:23.063Z,13.03
2019-02-09T12:50:52.444Z,16.40
2019-02-09T12:53:21.835Z,24.00
2019-02-09T12:55:51.238Z,20.13
2019-02-09T12:58:20.603Z,13.40
2019-02-09T13:00:49.966Z,18.80
2019-02-09T13:03:21.823Z,21.90
2019-02-09T13:08:56.908Z,20.03
2019-02-09T13:11:37.608Z,24.73
2019-02-09T13:14:40.238Z,23.80
2019-02-09T13:17:10.758Z,14.47
2019-02-09T13:19:40.731Z,19.67
2019-02-09T13:22:10.731Z,12.80
2019-02-09T13:24:41.764Z,16.90
2019-02-09T13:27:12.357Z,16.10
2019-02-09T13:29:41.773Z,13.30
2019-02-09T13:32:11.123Z,23.07
2019-02-09T13:34:40.513Z,20.07
2019-02-09T13:37:29.215Z,21.30
2019-02-09T13:39:58.578Z,20.30
2019-02-09T13:42:28.642Z,18.83
2019-02-09T13:44:58.088Z,17.00
2019-02-09T13:47:27.484Z,17.40
2019-02-09T13:49:56.870Z,28.73
2019-02-09T13:52:26.423Z,21.57
2019-02-09T13:54:56.067Z,17.20
2019-02-09T13:57:26.263Z,14.73
2019-02-09T13:59:55.638Z,17.30
2019-02-09T14:02:25.288Z,18.50
2019-02-09T14:04:55.064Z,16.50
2019-02-09T14:07:26.490Z,17.40
2019-02-09T14:09:55.863Z,16.47
2019-02-09T14:12:27.357Z,20.33
2019-02-09T14:14:56.741Z,17.63
2019-02-09T14:17:26.178Z,20.63
2019-02-09T14:19:55.586Z,16.77
2019-02-09T14:22:25.089Z,22.43
2019-02-09T14:24:54.384Z,25.13
2019-02-09T14:27:25.042Z,17.10
2019-02-09T14:29:54.448Z,20.03
2019-02-09T14:32:23.806Z,33.60
2019-02-09T14:34:53.186Z,22.47
2019-02-09T14:37:22.576Z,25.70
2019-02-09T14:39:52.360Z,32.63
2019-02-09T14:42:22.459Z,24.60
2019-02-09T14:44:52.984Z,25.27
2019-02-09T14:47:22.313Z,29.97
2019-02-09T14:49:51.685Z,23.37
2019-02-09T14:52:21.061Z,77.83
2019-02-09T14:54:50.450Z,42.97
2019-02-09T14:57:19.863Z,66.57
2019-02-09T14:59:49.254Z,53.83
2019-02-09T15:02:18.613Z,28.10
2019-02-09T15:04:47.976Z,27.00
2019-02-09T15:07:17.402Z,25.83
2019-02-09T15:09:46.831Z,30.43
2019-02-09T15:12:16.588Z,27.33
2019-02-09T15:14:46.023Z,25.33
2019-02-09T15:17:15.500Z,26.00
2019-02-09T15:19:44.880Z,25.27
2019-02-09T15:22:14.229Z,26.13
2019-02-09T15:24:43.607Z,23.60
2019-02-09T15:27:13.481Z,32.10
2019-02-09T15:29:42.856Z,27.60
2019-02-09T15:32:12.234Z,26.27
2019-02-09T15:34:41.628Z,26.67
2019-02-09T15:37:10.918Z,32.33
2019-02-09T15:39:40.331Z,28.80
2019-02-09T15:42:09.702Z,25.40
2019-02-09T15:44:39.076Z,28.70
2019-02-09T15:47:08.467Z,23.83
2019-02-09T15:49:37.843Z,26.63
2019-02-09T15:52:07.357Z,27.40
2019-02-09T15:54:37.479Z,22.87
2019-02-09T15:57:07.272Z,19.00
2019-02-09T15:59:36.862Z,25.90
2019-02-09T16:02:06.554Z,27.50
2019-02-09T16:04:35.933Z,30.43
2019-02-09T16:07:05.469Z,32.73
2019-02-09T16:09:34.926Z,32.17
2019-02-09T16:12:04.411Z,37.93
2019-02-09T16:14:33.805Z,24.63
2019-02-09T16:17:03.186Z,29.93
2019-02-09T16:19:32.519Z,31.10
2019-02-09T16:22:01.903Z,33.97
2019-02-09T16:24:31.259Z,30.60
2019-02-09T16:27:00.590Z,25.53
2019-02-09T16:29:29.950Z,34.70
2019-02-09T16:31:59.640Z,40.93
2019-02-09T16:34:28.962Z,39.00
2019-02-09T16:36:58.314Z,26.90
2019-02-09T16:39:27.666Z,31.10
2019-02-09T16:41:57.886Z,25.87
2019-02-09T16:44:27.243Z,53.77
2019-02-09T16:46:56.588Z,48.43
2019-02-09T16:49:25.875Z,40.23
2019-02-09T16:51:55.293Z,34.30
2019-02-09T16:54:24.669Z,34.33
2019-02-09T16:56:54.081Z,43.27
2019-02-09T16:59:23.513Z,46.10
2019-02-09T17:01:52.890Z,51.80
2019-02-09T17:04:22.448Z,53.30
2019-02-09T17:06:51.852Z,70.27
2019-02-09T17:09:21.388Z,63.87
2019-02-09T17:11:50.781Z,112.77
2019-02-09T17:14:20.263Z,57.10
2019-02-09T17:16:49.714Z,45.90
2019-02-09T17:19:19.111Z,46.07
2019-02-09T17:21:48.469Z,44.33
2019-02-09T17:24:18.025Z,70.90
2019-02-09T17:26:47.471Z,84.63
2019-02-09T17:29:16.888Z,59.07
2019-02-09T17:31:46.572Z,51.20
2019-02-09T17:34:16.001Z,34.53
2019-02-09T17:36:45.372Z,31.27
2019-02-09T17:39:15.101Z,41.97
2019-02-09T17:41:44.515Z,32.23
2019-02-09T17:44:14.094Z,27.90
2019-02-09T17:46:43.770Z,25.20
2019-02-09T17:49:13.126Z,20.80
2019-02-09T17:51:44.675Z,30.03
2019-02-09T17:54:14.035Z,41.23
2019-02-09T17:56:43.469Z,33.60
2019-02-09T17:59:13.024Z,27.63
2019-02-09T18:01:42.732Z,22.00
2019-02-09T18:04:13.620Z,24.77
2019-02-09T18:06:43.122Z,21.27
2019-02-09T18:09:12.917Z,22.30
2019-02-09T18:11:42.628Z,22.30
2019-02-09T18:14:12.129Z,20.93
2019-02-09T18:16:41.726Z,21.97
2019-02-09T18:19:11.594Z,23.43
2019-02-09T18:21:42.708Z,24.27
2019-02-09T18:24:12.256Z,23.43
2019-02-09T18:26:43.020Z,21.73
2019-02-09T18:29:12.848Z,24.70
2019-02-09T18:31:42.342Z,22.57
2019-02-09T18:34:11.923Z,22.37
2019-02-09T18:36:41.670Z,23.10
2019-02-09T18:39:12.867Z,17.93
2019-02-09T18:41:42.615Z,22.77
2019-02-09T18:44:13.108Z,25.63
2019-02-09T18:46:42.558Z,25.87
2019-02-09T18:49:13.429Z,23.50
2019-02-09T18:51:45.237Z,23.60
2019-02-09T18:54:17.327Z,27.07
2019-02-09T18:56:46.916Z,25.20
2019-02-09T18:59:16.789Z,23.00
2019-02-09T19:01:46.140Z,25.43
2019-02-09T19:04:16.531Z,27.57
2019-02-09T19:06:46.470Z,29.00
2019-02-09T19:09:17.641Z,23.20
2019-02-09T19:11:47.909Z,25.30
2019-02-09T19:14:17.672Z,23.30
2019-02-09T19:16:49.741Z,24.40
2019-02-09T19:19:19.411Z,22.57
2019-02-09T19:21:49.501Z,23.30
2019-02-09T19:24:18.994Z,34.30
2019-02-09T19:26:48.389Z,33.20
2019-02-09T19:29:17.824Z,48.27
2019-02-09T19:31:47.193Z,35.53
2019-02-09T19:34:17.014Z,28.47
2019-02-09T19:36:46.444Z,24.07
2019-02-09T19:39:16.289Z,29.60
2019-02-09T19:41:45.706Z,29.33
2019-02-09T19:44:15.201Z,26.90
2019-02-09T19:46:44.916Z,27.23
2019-02-09T19:49:14.233Z,26.73
2019-02-09T19:51:43.677Z,26.77
2019-02-09T19:54:13.049Z,29.40
2019-02-09T19:56:43.150Z,27.57
2019-02-09T19:59:12.512Z,26.40
2019-02-09T20:01:42.402Z,30.67
2019-02-09T20:04:11.978Z,34.33
2019-02-09T20:06:41.368Z,51.77
2019-02-09T20:09:11.804Z,27.40
2019-02-09T20:11:43.248Z,27.67
2019-02-09T20:14:12.625Z,29.43
2019-02-09T20:16:42.003Z,25.50
2019-02-09T20:19:11.456Z,26.30
2019-02-09T20:21:41.300Z,28.27
2019-02-09T20:24:10.702Z,23.27
2019-02-09T20:26:40.119Z,29.00
2019-02-09T20:29:09.473Z,23.13
2019-02-09T20:31:39.128Z,34.27
2019-02-09T20:34:09.397Z,26.50
2019-02-09T20:36:39.061Z,36.83
2019-02-09T20:39:10.203Z,31.40
2019-02-09T20:41:42.297Z,32.17
2019-02-09T20:44:11.720Z,29.13
2019-02-09T20:46:41.147Z,30.47
2019-02-09T20:49:10.523Z,29.13
2019-02-09T20:51:40.010Z,32.60
2019-02-09T20:54:09.418Z,27.20
2019-02-09T20:56:39.000Z,26.73
2019-02-09T20:59:08.382Z,30.33
2019-02-09T21:01:37.745Z,27.47
2019-02-09T21:04:07.375Z,28.80
2019-02-09T21:06:36.813Z,35.43
2019-02-09T21:09:08.482Z,29.57
2019-02-09T21:11:37.878Z,28.13
2019-02-09T21:14:10.369Z,30.27
2019-02-09T21:16:39.776Z,31.00
2019-02-09T21:19:09.231Z,27.03
2019-02-09T21:21:38.630Z,23.17
2019-02-09T21:24:08.150Z,27.23
2019-02-09T21:26:40.300Z,29.13
2019-02-09T21:29:09.831Z,30.23
2019-02-09T21:31:39.251Z,31.97
2019-02-09T21:34:08.800Z,34.67
2019-02-09T21:36:38.879Z,27.73
2019-02-09T21:39:09.916Z,31.53
2019-02-09T21:41:39.349Z,29.27
2019-02-09T21:44:10.154Z,44.43
2019-02-09T21:46:41.470Z,32.50
2019-02-09T21:49:10.841Z,32.10
2019-02-09T21:51:42.852Z,33.03
2019-02-09T21:54:12.873Z,31.10
2019-02-09T21:56:43.461Z,34.73
2019-02-09T21:59:13.021Z,34.80
2019-02-09T22:01:42.702Z,29.07
2019-02-09T22:04:13.141Z,37.50
2019-02-09T22:06:43.032Z,33.90
2019-02-09T22:09:13.149Z,32.90
2019-02-09T22:11:43.325Z,40.33
2019-02-09T22:14:13.295Z,36.17
2019-02-09T22:16:43.055Z,30.53
2019-02-09T22:19:12.848Z,29.97
2019-02-09T22:21:42.524Z,23.23
2019-02-09T22:24:11.952Z,31.83
2019-02-09T22:26:41.407Z,31.03
2019-02-09T22:29:11.333Z,27.73
2019-02-09T22:31:40.738Z,32.07
2019-02-09T22:34:10.866Z,30.00
2019-02-09T22:36:40.824Z,31.70
2019-02-09T22:39:10.565Z,33.33
2019-02-09T22:41:48.952Z,28.40
2019-02-09T22:44:13.955Z,26.63
2019-02-09T22:46:43.419Z,24.90
2019-02-09T22:49:13.520Z,24.97
2019-02-09T22:51:43.477Z,26.30
2019-02-09T22:54:12.805Z,28.93
2019-02-09T22:56:42.254Z,25.10
2019-02-09T22:59:11.659Z,22.83
2019-02-09T23:01:49.525Z,26.20
2019-02-09T23:04:43.298Z,26.00
2019-02-09T23:07:37.207Z,25.10
2019-02-09T23:10:10.801Z,26.23
2019-02-09T23:12:48.366Z,28.47
2019-02-09T23:15:12.524Z,26.53
2019-02-09T23:17:41.935Z,27.43
2019-02-09T23:20:11.499Z,26.33
2019-02-09T23:22:40.936Z,27.33
2019-02-09T23:25:10.394Z,27.33
2019-02-09T23:27:39.792Z,29.30
2019-02-09T23:30:11.704Z,29.93
2019-02-09T23:32:41.056Z,32.60
2019-02-09T23:35:10.439Z,29.13
2019-02-09T23:37:39.801Z,28.07
2019-02-09T23:40:09.193Z,27.60
2019-02-09T23:42:38.596Z,25.97
2019-02-09T23:45:08.180Z,27.17
2019-02-09T23:47:37.602Z,28.23
2019-02-09T23:50:07.014Z,30.90
2019-02-09T23:52:36.422Z,25.03
2019-02-09T23:55:05.822Z,28.60
2019-02-09T23:57:35.287Z,32.53
